sensor_id;sensor_type;location;lat;lon;timestamp;temperature;humidity
49385;DHT22;36795;45.028;38.968;2022-10-31T00:02:31;13.80;89.40
49385;DHT22;36795;45.028;38.968;2022-10-31T00:05:17;13.80;89.30
49385;DHT22;36795;45.028;38.968;2022-10-31T00:08:03;13.90;89.30
49385;DHT22;36795;45.028;38.968;2022-10-31T00:10:49;13.80;89.30
49385;DHT22;36795;45.028;38.968;2022-10-31T00:13:35;13.90;89.40
49385;DHT22;36795;45.028;38.968;2022-10-31T00:16:23;13.80;89.40
49385;DHT22;36795;45.028;38.968;2022-10-31T00:19:09;13.90;89.90
49385;DHT22;36795;45.028;38.968;2022-10-31T00:21:56;13.90;89.30
49385;DHT22;36795;45.028;38.968;2022-10-31T00:24:42;13.90;89.40
49385;DHT22;36795;45.028;38.968;2022-10-31T00:27:28;13.90;89.10
49385;DHT22;36795;45.028;38.968;2022-10-31T00:30:14;13.90;88.90
49385;DHT22;36795;45.028;38.968;2022-10-31T00:33:00;14.00;89.20
49385;DHT22;36795;45.028;38.968;2022-10-31T00:35:50;14.00;89.20
49385;DHT22;36795;45.028;38.968;2022-10-31T00:38:36;14.00;89.10
49385;DHT22;36795;45.028;38.968;2022-10-31T00:41:22;14.00;89.20
49385;DHT22;36795;45.028;38.968;2022-10-31T00:44:08;13.90;89.50
49385;DHT22;36795;45.028;38.968;2022-10-31T00:46:54;13.90;89.80
49385;DHT22;36795;45.028;38.968;2022-10-31T00:49:41;13.90;89.90
49385;DHT22;36795;45.028;38.968;2022-10-31T00:52:26;13.80;90.00
49385;DHT22;36795;45.028;38.968;2022-10-31T00:55:13;13.80;90.00
49385;DHT22;36795;45.028;38.968;2022-10-31T00:57:59;13.90;90.10
49385;DHT22;36795;45.028;38.968;2022-10-31T01:00:49;13.80;90.10
49385;DHT22;36795;45.028;38.968;2022-10-31T01:03:41;13.80;90.30
49385;DHT22;36795;45.028;38.968;2022-10-31T01:06:29;13.80;90.40
49385;DHT22;36795;45.028;38.968;2022-10-31T01:09:16;13.80;90.40
49385;DHT22;36795;45.028;38.968;2022-10-31T01:12:02;13.70;90.50
49385;DHT22;36795;45.028;38.968;2022-10-31T01:14:48;13.70;90.60
49385;DHT22;36795;45.028;38.968;2022-10-31T01:17:37;13.80;90.60
49385;DHT22;36795;45.028;38.968;2022-10-31T01:20:23;13.80;90.60
49385;DHT22;36795;45.028;38.968;2022-10-31T01:23:09;13.80;90.60
49385;DHT22;36795;45.028;38.968;2022-10-31T01:26:18;13.90;90.60
49385;DHT22;36795;45.028;38.968;2022-10-31T01:29:07;13.80;90.60
49385;DHT22;36795;45.028;38.968;2022-10-31T01:31:54;13.80;90.70
49385;DHT22;36795;45.028;38.968;2022-10-31T01:34:40;13.80;90.70
49385;DHT22;36795;45.028;38.968;2022-10-31T01:37:26;13.80;90.70
49385;DHT22;36795;45.028;38.968;2022-10-31T01:40:12;13.90;90.70
49385;DHT22;36795;45.028;38.968;2022-10-31T01:42:58;13.90;90.70
49385;DHT22;36795;45.028;38.968;2022-10-31T01:45:50;13.90;90.70
49385;DHT22;36795;45.028;38.968;2022-10-31T01:48:36;13.90;90.70
49385;DHT22;36795;45.028;38.968;2022-10-31T01:51:28;13.90;90.70
49385;DHT22;36795;45.028;38.968;2022-10-31T01:54:17;13.90;90.70
49385;DHT22;36795;45.028;38.968;2022-10-31T01:57:05;13.90;90.80
49385;DHT22;36795;45.028;38.968;2022-10-31T01:59:56;13.90;90.80
49385;DHT22;36795;45.028;38.968;2022-10-31T02:02:45;13.90;90.80
49385;DHT22;36795;45.028;38.968;2022-10-31T02:05:32;14.00;90.80
49385;DHT22;36795;45.028;38.968;2022-10-31T02:08:25;13.90;90.80
49385;DHT22;36795;45.028;38.968;2022-10-31T02:11:12;13.90;90.80
49385;DHT22;36795;45.028;38.968;2022-10-31T02:13:58;14.00;90.80
49385;DHT22;36795;45.028;38.968;2022-10-31T02:16:46;14.00;90.80
49385;DHT22;36795;45.028;38.968;2022-10-31T02:20:16;14.00;90.80
49385;DHT22;36795;45.028;38.968;2022-10-31T02:26:40;13.90;90.90
49385;DHT22;36795;45.028;38.968;2022-10-31T02:32:56;14.00;91.00
49385;DHT22;36795;45.028;38.968;2022-10-31T02:39:11;13.90;91.00
49385;DHT22;36795;45.028;38.968;2022-10-31T02:42:13;14.00;91.00
49385;DHT22;36795;45.028;38.968;2022-10-31T02:48:00;14.00;91.00
49385;DHT22;36795;45.028;38.968;2022-10-31T02:51:00;13.90;91.00
49385;DHT22;36795;45.028;38.968;2022-10-31T02:53:48;13.90;91.00
49385;DHT22;36795;45.028;38.968;2022-10-31T02:56:34;13.90;91.00
49385;DHT22;36795;45.028;38.968;2022-10-31T02:59:20;14.00;91.00
49385;DHT22;36795;45.028;38.968;2022-10-31T03:05:31;14.00;90.80
49385;DHT22;36795;45.028;38.968;2022-10-31T03:11:36;14.00;90.70
49385;DHT22;36795;45.028;38.968;2022-10-31T03:14:38;14.00;90.70
49385;DHT22;36795;45.028;38.968;2022-10-31T03:17:35;13.90;90.70
49385;DHT22;36795;45.028;38.968;2022-10-31T03:20:31;13.90;90.70
49385;DHT22;36795;45.028;38.968;2022-10-31T03:23:22;13.90;90.70
49385;DHT22;36795;45.028;38.968;2022-10-31T03:26:11;13.90;90.70
49385;DHT22;36795;45.028;38.968;2022-10-31T03:29:04;13.90;90.60
49385;DHT22;36795;45.028;38.968;2022-10-31T03:32:15;13.90;90.60
49385;DHT22;36795;45.028;38.968;2022-10-31T03:35:06;13.90;90.50
49385;DHT22;36795;45.028;38.968;2022-10-31T03:37:54;13.80;90.40
49385;DHT22;36795;45.028;38.968;2022-10-31T03:40:43;13.80;90.30
49385;DHT22;36795;45.028;38.968;2022-10-31T03:43:35;13.80;90.30
49385;DHT22;36795;45.028;38.968;2022-10-31T03:46:24;13.80;90.20
49385;DHT22;36795;45.028;38.968;2022-10-31T03:49:12;13.80;90.20
49385;DHT22;36795;45.028;38.968;2022-10-31T03:54:58;13.70;90.00
49385;DHT22;36795;45.028;38.968;2022-10-31T03:58:02;13.80;90.00
49385;DHT22;36795;45.028;38.968;2022-10-31T04:00:52;13.70;90.00
49385;DHT22;36795;45.028;38.968;2022-10-31T04:03:41;13.70;90.10
49385;DHT22;36795;45.028;38.968;2022-10-31T04:06:30;13.70;90.20
49385;DHT22;36795;45.028;38.968;2022-10-31T04:09:18;13.60;90.20
49385;DHT22;36795;45.028;38.968;2022-10-31T04:12:07;13.70;90.10
49385;DHT22;36795;45.028;38.968;2022-10-31T04:14:56;13.70;90.10
49385;DHT22;36795;45.028;38.968;2022-10-31T04:17:43;13.70;90.00
49385;DHT22;36795;45.028;38.968;2022-10-31T04:20:37;13.70;90.10
49385;DHT22;36795;45.028;38.968;2022-10-31T04:23:25;13.70;90.10
49385;DHT22;36795;45.028;38.968;2022-10-31T04:26:12;13.70;90.10
49385;DHT22;36795;45.028;38.968;2022-10-31T04:28:58;13.70;90.00
49385;DHT22;36795;45.028;38.968;2022-10-31T04:31:45;13.80;90.00
49385;DHT22;36795;45.028;38.968;2022-10-31T04:34:31;13.80;90.00
49385;DHT22;36795;45.028;38.968;2022-10-31T04:37:18;13.80;89.80
49385;DHT22;36795;45.028;38.968;2022-10-31T04:40:04;13.80;89.80
49385;DHT22;36795;45.028;38.968;2022-10-31T04:42:55;13.80;89.80
49385;DHT22;36795;45.028;38.968;2022-10-31T04:45:41;13.80;89.90
49385;DHT22;36795;45.028;38.968;2022-10-31T04:48:28;13.80;90.00
49385;DHT22;36795;45.028;38.968;2022-10-31T04:51:14;13.80;89.90
49385;DHT22;36795;45.028;38.968;2022-10-31T04:54:01;13.80;89.90
49385;DHT22;36795;45.028;38.968;2022-10-31T04:56:49;13.80;90.00
49385;DHT22;36795;45.028;38.968;2022-10-31T04:59:35;13.90;90.00
49385;DHT22;36795;45.028;38.968;2022-10-31T05:02:22;14.00;90.00
49385;DHT22;36795;45.028;38.968;2022-10-31T05:05:11;14.00;89.80
49385;DHT22;36795;45.028;38.968;2022-10-31T05:07:57;14.10;89.90
49385;DHT22;36795;45.028;38.968;2022-10-31T05:10:44;14.10;88.90
49385;DHT22;36795;45.028;38.968;2022-10-31T05:13:30;14.20;89.00
49385;DHT22;36795;45.028;38.968;2022-10-31T05:16:18;14.30;88.80
49385;DHT22;36795;45.028;38.968;2022-10-31T05:19:06;14.60;88.20
49385;DHT22;36795;45.028;38.968;2022-10-31T05:21:53;15.20;86.80
49385;DHT22;36795;45.028;38.968;2022-10-31T05:24:39;15.90;84.30
49385;DHT22;36795;45.028;38.968;2022-10-31T05:27:29;16.10;82.00
49385;DHT22;36795;45.028;38.968;2022-10-31T05:30:18;16.20;80.90
49385;DHT22;36795;45.028;38.968;2022-10-31T05:33:06;16.20;80.20
49385;DHT22;36795;45.028;38.968;2022-10-31T05:35:55;16.20;80.40
49385;DHT22;36795;45.028;38.968;2022-10-31T05:38:43;16.20;79.50
49385;DHT22;36795;45.028;38.968;2022-10-31T05:41:29;15.80;80.10
49385;DHT22;36795;45.028;38.968;2022-10-31T05:44:19;15.70;80.80
49385;DHT22;36795;45.028;38.968;2022-10-31T05:47:06;15.80;81.30
49385;DHT22;36795;45.028;38.968;2022-10-31T05:49:55;16.20;80.10
49385;DHT22;36795;45.028;38.968;2022-10-31T05:52:45;16.00;79.20
49385;DHT22;36795;45.028;38.968;2022-10-31T05:55:32;15.70;80.40
49385;DHT22;36795;45.028;38.968;2022-10-31T05:58:20;15.50;81.40
49385;DHT22;36795;45.028;38.968;2022-10-31T06:01:07;15.30;82.10
49385;DHT22;36795;45.028;38.968;2022-10-31T06:03:54;15.20;82.70
49385;DHT22;36795;45.028;38.968;2022-10-31T06:06:42;15.10;83.30
49385;DHT22;36795;45.028;38.968;2022-10-31T06:09:28;15.10;83.70
49385;DHT22;36795;45.028;38.968;2022-10-31T06:12:14;15.10;84.00
49385;DHT22;36795;45.028;38.968;2022-10-31T06:15:08;15.10;83.90
49385;DHT22;36795;45.028;38.968;2022-10-31T06:18:01;15.20;83.90
49385;DHT22;36795;45.028;38.968;2022-10-31T06:20:49;15.30;83.70
49385;DHT22;36795;45.028;38.968;2022-10-31T06:23:34;15.30;84.00
49385;DHT22;36795;45.028;38.968;2022-10-31T06:26:23;15.40;83.70
49385;DHT22;36795;45.028;38.968;2022-10-31T06:29:11;15.40;83.80
49385;DHT22;36795;45.028;38.968;2022-10-31T06:32:01;15.90;83.10
49385;DHT22;36795;45.028;38.968;2022-10-31T06:34:47;15.90;82.10
49385;DHT22;36795;45.028;38.968;2022-10-31T06:37:34;15.80;82.20
49385;DHT22;36795;45.028;38.968;2022-10-31T06:40:20;15.70;82.90
49385;DHT22;36795;45.028;38.968;2022-10-31T06:43:09;15.70;83.10
49385;DHT22;36795;45.028;38.968;2022-10-31T06:46:01;15.70;83.20
49385;DHT22;36795;45.028;38.968;2022-10-31T06:48:49;15.80;83.70
49385;DHT22;36795;45.028;38.968;2022-10-31T06:51:35;16.60;83.10
49385;DHT22;36795;45.028;38.968;2022-10-31T06:54:22;17.40;79.60
49385;DHT22;36795;45.028;38.968;2022-10-31T06:57:07;17.80;77.80
49385;DHT22;36795;45.028;38.968;2022-10-31T06:59:56;18.60;75.50
49385;DHT22;36795;45.028;38.968;2022-10-31T07:02:43;19.00;74.90
49385;DHT22;36795;45.028;38.968;2022-10-31T07:05:30;19.80;73.30
49385;DHT22;36795;45.028;38.968;2022-10-31T07:08:17;21.30;68.50
49385;DHT22;36795;45.028;38.968;2022-10-31T07:11:03;22.70;63.30
49385;DHT22;36795;45.028;38.968;2022-10-31T07:13:50;25.00;57.50
49385;DHT22;36795;45.028;38.968;2022-10-31T07:16:36;26.00;54.00
49385;DHT22;36795;45.028;38.968;2022-10-31T07:19:22;27.00;51.80
49385;DHT22;36795;45.028;38.968;2022-10-31T07:22:08;27.40;49.50
49385;DHT22;36795;45.028;38.968;2022-10-31T07:24:56;27.40;49.20
49385;DHT22;36795;45.028;38.968;2022-10-31T07:27:45;26.00;50.40
49385;DHT22;36795;45.028;38.968;2022-10-31T07:30:31;24.10;53.70
49385;DHT22;36795;45.028;38.968;2022-10-31T07:33:18;23.50;55.90
49385;DHT22;36795;45.028;38.968;2022-10-31T07:36:06;25.30;53.10
49385;DHT22;36795;45.028;38.968;2022-10-31T07:38:52;26.60;50.30
49385;DHT22;36795;45.028;38.968;2022-10-31T07:41:38;26.90;49.70
49385;DHT22;36795;45.028;38.968;2022-10-31T07:44:24;27.10;48.80
49385;DHT22;36795;45.028;38.968;2022-10-31T07:47:13;25.80;50.00
49385;DHT22;36795;45.028;38.968;2022-10-31T07:50:05;24.20;52.80
49385;DHT22;36795;45.028;38.968;2022-10-31T07:55:49;21.80;58.10
49385;DHT22;36795;45.028;38.968;2022-10-31T07:58:37;21.20;60.70
49385;DHT22;36795;45.028;38.968;2022-10-31T08:01:23;21.70;59.70
49385;DHT22;36795;45.028;38.968;2022-10-31T08:04:11;22.20;58.20
49385;DHT22;36795;45.028;38.968;2022-10-31T08:07:02;21.70;57.70
49385;DHT22;36795;45.028;38.968;2022-10-31T08:09:49;21.00;58.50
49385;DHT22;36795;45.028;38.968;2022-10-31T08:12:36;20.40;59.40
49385;DHT22;36795;45.028;38.968;2022-10-31T08:15:26;20.00;62.10
49385;DHT22;36795;45.028;38.968;2022-10-31T08:18:13;21.10;60.40
49385;DHT22;36795;45.028;38.968;2022-10-31T08:21:01;21.70;59.40
49385;DHT22;36795;45.028;38.968;2022-10-31T08:23:48;23.70;54.80
49385;DHT22;36795;45.028;38.968;2022-10-31T08:26:34;25.40;49.90
49385;DHT22;36795;45.028;38.968;2022-10-31T08:29:21;26.30;48.10
49385;DHT22;36795;45.028;38.968;2022-10-31T08:32:07;26.90;47.10
49385;DHT22;36795;45.028;38.968;2022-10-31T08:34:59;27.70;44.60
49385;DHT22;36795;45.028;38.968;2022-10-31T08:37:54;27.90;43.10
49385;DHT22;36795;45.028;38.968;2022-10-31T08:40:42;26.00;46.30
49385;DHT22;36795;45.028;38.968;2022-10-31T08:43:28;24.70;48.30
49385;DHT22;36795;45.028;38.968;2022-10-31T08:46:14;23.60;48.90
49385;DHT22;36795;45.028;38.968;2022-10-31T08:49:01;23.60;49.00
49385;DHT22;36795;45.028;38.968;2022-10-31T08:51:48;24.60;47.00
49385;DHT22;36795;45.028;38.968;2022-10-31T08:54:35;24.30;47.30
49385;DHT22;36795;45.028;38.968;2022-10-31T08:57:25;23.20;48.40
49385;DHT22;36795;45.028;38.968;2022-10-31T09:00:12;23.20;49.00
49385;DHT22;36795;45.028;38.968;2022-10-31T09:03:00;23.90;46.70
49385;DHT22;36795;45.028;38.968;2022-10-31T09:05:49;23.90;47.20
49385;DHT22;36795;45.028;38.968;2022-10-31T09:08:36;23.60;47.80
49385;DHT22;36795;45.028;38.968;2022-10-31T09:11:22;23.10;49.10
49385;DHT22;36795;45.028;38.968;2022-10-31T09:14:11;22.60;49.90
49385;DHT22;36795;45.028;38.968;2022-10-31T09:17:02;21.90;51.00
49385;DHT22;36795;45.028;38.968;2022-10-31T09:19:49;21.60;51.80
49385;DHT22;36795;45.028;38.968;2022-10-31T09:22:35;21.10;53.00
49385;DHT22;36795;45.028;38.968;2022-10-31T09:25:21;21.20;52.60
49385;DHT22;36795;45.028;38.968;2022-10-31T09:28:14;21.60;51.50
49385;DHT22;36795;45.028;38.968;2022-10-31T09:31:00;22.10;50.40
49385;DHT22;36795;45.028;38.968;2022-10-31T09:33:48;22.30;50.20
49385;DHT22;36795;45.028;38.968;2022-10-31T09:36:38;22.30;50.20
49385;DHT22;36795;45.028;38.968;2022-10-31T09:39:25;21.90;50.50
49385;DHT22;36795;45.028;38.968;2022-10-31T09:45:27;21.80;50.90
49385;DHT22;36795;45.028;38.968;2022-10-31T09:52:04;21.70;50.30
49385;DHT22;36795;45.028;38.968;2022-10-31T09:55:04;23.00;47.80
49385;DHT22;36795;45.028;38.968;2022-10-31T09:57:51;24.30;45.20
49385;DHT22;36795;45.028;38.968;2022-10-31T10:00:38;24.80;43.70
49385;DHT22;36795;45.028;38.968;2022-10-31T10:03:35;25.10;41.90
49385;DHT22;36795;45.028;38.968;2022-10-31T10:06:29;25.90;41.30
49385;DHT22;36795;45.028;38.968;2022-10-31T10:09:24;27.10;38.50
49385;DHT22;36795;45.028;38.968;2022-10-31T10:15:33;26.30;39.00
49385;DHT22;36795;45.028;38.968;2022-10-31T10:18:43;24.90;40.60
49385;DHT22;36795;45.028;38.968;2022-10-31T10:28:10;21.60;47.20
49385;DHT22;36795;45.028;38.968;2022-10-31T10:31:05;20.70;48.60
49385;DHT22;36795;45.028;38.968;2022-10-31T10:36:58;20.00;50.50
49385;DHT22;36795;45.028;38.968;2022-10-31T10:39:52;20.10;50.50
49385;DHT22;36795;45.028;38.968;2022-10-31T10:42:38;20.00;50.40
49385;DHT22;36795;45.028;38.968;2022-10-31T10:45:48;19.70;51.30
49385;DHT22;36795;45.028;38.968;2022-10-31T10:52:14;20.00;50.80
49385;DHT22;36795;45.028;38.968;2022-10-31T10:58:27;20.00;51.10
49385;DHT22;36795;45.028;38.968;2022-10-31T11:01:14;20.20;50.80
49385;DHT22;36795;45.028;38.968;2022-10-31T11:04:02;20.90;49.20
49385;DHT22;36795;45.028;38.968;2022-10-31T11:07:06;21.70;47.50
49385;DHT22;36795;45.028;38.968;2022-10-31T11:10:03;22.30;46.30
49385;DHT22;36795;45.028;38.968;2022-10-31T11:13:17;22.40;46.10
49385;DHT22;36795;45.028;38.968;2022-10-31T11:16:26;21.90;45.90
49385;DHT22;36795;45.028;38.968;2022-10-31T11:22:15;20.90;47.50
49385;DHT22;36795;45.028;38.968;2022-10-31T11:25:24;20.50;48.50
49385;DHT22;36795;45.028;38.968;2022-10-31T11:28:11;20.30;49.40
49385;DHT22;36795;45.028;38.968;2022-10-31T11:30:59;20.30;50.10
49385;DHT22;36795;45.028;38.968;2022-10-31T11:34:02;20.50;49.70
49385;DHT22;36795;45.028;38.968;2022-10-31T11:36:49;20.70;49.50
49385;DHT22;36795;45.028;38.968;2022-10-31T11:39:41;20.60;49.50
49385;DHT22;36795;45.028;38.968;2022-10-31T11:42:39;20.50;50.20
49385;DHT22;36795;45.028;38.968;2022-10-31T11:45:33;20.50;50.60
49385;DHT22;36795;45.028;38.968;2022-10-31T11:48:23;20.70;50.30
49385;DHT22;36795;45.028;38.968;2022-10-31T11:51:11;21.30;49.60
49385;DHT22;36795;45.028;38.968;2022-10-31T11:54:01;22.00;47.80
49385;DHT22;36795;45.028;38.968;2022-10-31T11:56:51;22.70;46.80
49385;DHT22;36795;45.028;38.968;2022-10-31T11:59:39;23.00;46.00
49385;DHT22;36795;45.028;38.968;2022-10-31T12:02:26;22.30;47.10
49385;DHT22;36795;45.028;38.968;2022-10-31T12:05:25;21.50;48.80
49385;DHT22;36795;45.028;38.968;2022-10-31T12:08:18;20.60;50.90
49385;DHT22;36795;45.028;38.968;2022-10-31T12:11:16;19.90;53.00
49385;DHT22;36795;45.028;38.968;2022-10-31T12:17:23;19.30;55.10
49385;DHT22;36795;45.028;38.968;2022-10-31T12:20:41;19.10;55.60
49385;DHT22;36795;45.028;38.968;2022-10-31T12:26:53;19.40;55.40
49385;DHT22;36795;45.028;38.968;2022-10-31T12:32:43;19.80;53.60
49385;DHT22;36795;45.028;38.968;2022-10-31T12:36:07;19.40;54.20
49385;DHT22;36795;45.028;38.968;2022-10-31T12:42:25;20.40;52.80
49385;DHT22;36795;45.028;38.968;2022-10-31T12:52:13;21.40;49.90
49385;DHT22;36795;45.028;38.968;2022-10-31T12:58:40;20.20;52.40
49385;DHT22;36795;45.028;38.968;2022-10-31T13:01:37;19.50;54.90
49385;DHT22;36795;45.028;38.968;2022-10-31T13:04:33;18.90;56.40
49385;DHT22;36795;45.028;38.968;2022-10-31T13:07:43;18.50;57.80
49385;DHT22;36795;45.028;38.968;2022-10-31T13:13:43;17.80;60.00
49385;DHT22;36795;45.028;38.968;2022-10-31T13:16:44;17.70;60.40
49385;DHT22;36795;45.028;38.968;2022-10-31T13:19:42;17.50;60.90
49385;DHT22;36795;45.028;38.968;2022-10-31T13:22:32;17.30;61.50
49385;DHT22;36795;45.028;38.968;2022-10-31T13:25:37;17.20;62.10
49385;DHT22;36795;45.028;38.968;2022-10-31T13:28:47;17.10;62.70
49385;DHT22;36795;45.028;38.968;2022-10-31T13:31:39;17.10;63.20
49385;DHT22;36795;45.028;38.968;2022-10-31T13:34:48;16.90;63.10
49385;DHT22;36795;45.028;38.968;2022-10-31T13:37:44;16.90;63.00
49385;DHT22;36795;45.028;38.968;2022-10-31T13:44:13;16.60;61.80
49385;DHT22;36795;45.028;38.968;2022-10-31T13:46:59;16.60;61.40
49385;DHT22;36795;45.028;38.968;2022-10-31T13:49:46;16.40;61.80
49385;DHT22;36795;45.028;38.968;2022-10-31T13:52:32;16.40;62.60
49385;DHT22;36795;45.028;38.968;2022-10-31T13:55:38;16.30;62.10
49385;DHT22;36795;45.028;38.968;2022-10-31T13:58:29;16.20;62.50
49385;DHT22;36795;45.028;38.968;2022-10-31T14:01:19;16.10;63.50
49385;DHT22;36795;45.028;38.968;2022-10-31T14:04:15;16.00;64.20
49385;DHT22;36795;45.028;38.968;2022-10-31T14:07:10;15.90;64.50
49385;DHT22;36795;45.028;38.968;2022-10-31T14:12:49;15.90;64.80
49385;DHT22;36795;45.028;38.968;2022-10-31T14:15:38;15.80;65.00
49385;DHT22;36795;45.028;38.968;2022-10-31T14:18:36;15.70;65.40
49385;DHT22;36795;45.028;38.968;2022-10-31T14:27:35;15.60;65.70
49385;DHT22;36795;45.028;38.968;2022-10-31T14:30:30;15.50;65.80
49385;DHT22;36795;45.028;38.968;2022-10-31T14:33:19;15.50;66.20
49385;DHT22;36795;45.028;38.968;2022-10-31T14:36:19;15.40;66.40
49385;DHT22;36795;45.028;38.968;2022-10-31T14:39:29;15.30;66.80
49385;DHT22;36795;45.028;38.968;2022-10-31T14:45:25;15.10;66.90
49385;DHT22;36795;45.028;38.968;2022-10-31T14:51:39;14.90;67.60
49385;DHT22;36795;45.028;38.968;2022-10-31T14:54:32;14.80;67.80
49385;DHT22;36795;45.028;38.968;2022-10-31T14:57:23;14.80;67.20
49385;DHT22;36795;45.028;38.968;2022-10-31T15:00:17;14.80;67.10
49385;DHT22;36795;45.028;38.968;2022-10-31T15:03:12;14.90;67.30
49385;DHT22;36795;45.028;38.968;2022-10-31T15:06:05;14.80;66.30
49385;DHT22;36795;45.028;38.968;2022-10-31T15:08:56;14.80;66.30
49385;DHT22;36795;45.028;38.968;2022-10-31T15:11:41;14.80;66.30
49385;DHT22;36795;45.028;38.968;2022-10-31T15:14:30;14.80;66.40
49385;DHT22;36795;45.028;38.968;2022-10-31T15:17:17;14.70;66.70
49385;DHT22;36795;45.028;38.968;2022-10-31T15:20:03;14.50;67.20
49385;DHT22;36795;45.028;38.968;2022-10-31T15:22:50;14.40;67.90
49385;DHT22;36795;45.028;38.968;2022-10-31T15:25:36;14.40;68.20
49385;DHT22;36795;45.028;38.968;2022-10-31T15:28:24;14.40;68.40
49385;DHT22;36795;45.028;38.968;2022-10-31T15:31:16;14.40;68.60
49385;DHT22;36795;45.028;38.968;2022-10-31T15:34:19;14.40;68.90
49385;DHT22;36795;45.028;38.968;2022-10-31T15:37:26;14.40;68.60
49385;DHT22;36795;45.028;38.968;2022-10-31T15:40:16;14.20;67.60
49385;DHT22;36795;45.028;38.968;2022-10-31T15:43:04;14.20;67.80
49385;DHT22;36795;45.028;38.968;2022-10-31T15:45:52;14.10;68.10
49385;DHT22;36795;45.028;38.968;2022-10-31T15:48:38;14.10;67.70
49385;DHT22;36795;45.028;38.968;2022-10-31T15:51:30;14.00;68.10
49385;DHT22;36795;45.028;38.968;2022-10-31T15:54:18;13.90;68.50
49385;DHT22;36795;45.028;38.968;2022-10-31T15:57:10;13.80;68.60
49385;DHT22;36795;45.028;38.968;2022-10-31T15:59:57;13.80;69.00
49385;DHT22;36795;45.028;38.968;2022-10-31T16:02:43;13.80;68.90
49385;DHT22;36795;45.028;38.968;2022-10-31T16:05:39;13.70;68.90
49385;DHT22;36795;45.028;38.968;2022-10-31T16:11:37;13.70;69.60
49385;DHT22;36795;45.028;38.968;2022-10-31T16:14:26;13.70;70.00
49385;DHT22;36795;45.028;38.968;2022-10-31T16:17:15;13.70;70.20
49385;DHT22;36795;45.028;38.968;2022-10-31T16:20:05;13.70;70.00
49385;DHT22;36795;45.028;38.968;2022-10-31T16:22:54;13.70;69.90
49385;DHT22;36795;45.028;38.968;2022-10-31T16:25:41;13.60;70.10
49385;DHT22;36795;45.028;38.968;2022-10-31T16:28:27;13.60;70.00
49385;DHT22;36795;45.028;38.968;2022-10-31T16:31:14;13.50;70.20
49385;DHT22;36795;45.028;38.968;2022-10-31T16:34:19;13.50;70.40
49385;DHT22;36795;45.028;38.968;2022-10-31T16:37:05;13.50;70.40
49385;DHT22;36795;45.028;38.968;2022-10-31T16:39:53;13.50;70.80
49385;DHT22;36795;45.028;38.968;2022-10-31T16:42:42;13.50;70.80
49385;DHT22;36795;45.028;38.968;2022-10-31T16:45:31;13.60;70.80
49385;DHT22;36795;45.028;38.968;2022-10-31T16:48:19;13.50;70.80
49385;DHT22;36795;45.028;38.968;2022-10-31T16:51:08;13.50;70.90
49385;DHT22;36795;45.028;38.968;2022-10-31T16:53:53;13.50;70.90
49385;DHT22;36795;45.028;38.968;2022-10-31T16:56:41;13.40;71.00
49385;DHT22;36795;45.028;38.968;2022-10-31T16:59:29;13.40;71.40
49385;DHT22;36795;45.028;38.968;2022-10-31T17:02:16;13.40;71.50
49385;DHT22;36795;45.028;38.968;2022-10-31T17:05:02;13.40;71.60
49385;DHT22;36795;45.028;38.968;2022-10-31T17:07:49;13.40;71.30
49385;DHT22;36795;45.028;38.968;2022-10-31T17:10:39;13.30;71.00
49385;DHT22;36795;45.028;38.968;2022-10-31T17:13:28;13.20;71.10
49385;DHT22;36795;45.028;38.968;2022-10-31T17:16:17;13.20;71.20
49385;DHT22;36795;45.028;38.968;2022-10-31T17:19:07;13.30;71.20
49385;DHT22;36795;45.028;38.968;2022-10-31T17:21:54;13.30;71.10
49385;DHT22;36795;45.028;38.968;2022-10-31T17:24:41;13.30;70.90
49385;DHT22;36795;45.028;38.968;2022-10-31T17:27:26;13.20;70.00
49385;DHT22;36795;45.028;38.968;2022-10-31T17:30:14;13.20;69.20
49385;DHT22;36795;45.028;38.968;2022-10-31T17:33:00;13.00;69.00
49385;DHT22;36795;45.028;38.968;2022-10-31T17:35:47;13.00;67.60
49385;DHT22;36795;45.028;38.968;2022-10-31T17:38:36;12.90;66.70
49385;DHT22;36795;45.028;38.968;2022-10-31T17:41:22;12.90;65.70
49385;DHT22;36795;45.028;38.968;2022-10-31T17:44:12;12.80;64.70
49385;DHT22;36795;45.028;38.968;2022-10-31T17:46:59;12.80;63.90
49385;DHT22;36795;45.028;38.968;2022-10-31T17:49:46;12.70;63.70
49385;DHT22;36795;45.028;38.968;2022-10-31T17:52:32;12.70;63.20
49385;DHT22;36795;45.028;38.968;2022-10-31T17:55:21;12.60;62.70
49385;DHT22;36795;45.028;38.968;2022-10-31T17:58:09;12.50;62.50
49385;DHT22;36795;45.028;38.968;2022-10-31T18:00:58;12.40;62.70
49385;DHT22;36795;45.028;38.968;2022-10-31T18:03:45;12.30;63.20
49385;DHT22;36795;45.028;38.968;2022-10-31T18:06:31;12.10;63.40
49385;DHT22;36795;45.028;38.968;2022-10-31T18:09:17;11.90;63.30
49385;DHT22;36795;45.028;38.968;2022-10-31T18:12:03;11.80;63.50
49385;DHT22;36795;45.028;38.968;2022-10-31T18:14:53;11.70;63.90
49385;DHT22;36795;45.028;38.968;2022-10-31T18:17:39;11.60;64.30
49385;DHT22;36795;45.028;38.968;2022-10-31T18:20:25;11.50;64.60
49385;DHT22;36795;45.028;38.968;2022-10-31T18:23:11;11.50;64.80
49385;DHT22;36795;45.028;38.968;2022-10-31T18:25:58;11.40;65.10
49385;DHT22;36795;45.028;38.968;2022-10-31T18:28:43;11.30;65.40
49385;DHT22;36795;45.028;38.968;2022-10-31T18:31:30;11.30;65.50
49385;DHT22;36795;45.028;38.968;2022-10-31T18:34:17;11.20;65.40
49385;DHT22;36795;45.028;38.968;2022-10-31T18:37:03;11.10;65.40
49385;DHT22;36795;45.028;38.968;2022-10-31T18:39:49;11.10;65.50
49385;DHT22;36795;45.028;38.968;2022-10-31T18:42:35;11.00;65.60
49385;DHT22;36795;45.028;38.968;2022-10-31T18:45:23;10.90;65.80
49385;DHT22;36795;45.028;38.968;2022-10-31T18:48:12;10.90;66.00
49385;DHT22;36795;45.028;38.968;2022-10-31T18:51:03;10.90;66.10
49385;DHT22;36795;45.028;38.968;2022-10-31T18:53:55;10.90;66.10
49385;DHT22;36795;45.028;38.968;2022-10-31T18:56:41;10.80;65.80
49385;DHT22;36795;45.028;38.968;2022-10-31T18:59:27;10.80;65.90
49385;DHT22;36795;45.028;38.968;2022-10-31T19:02:13;10.70;65.90
49385;DHT22;36795;45.028;38.968;2022-10-31T19:05:00;10.60;65.10
49385;DHT22;36795;45.028;38.968;2022-10-31T19:07:46;10.60;64.90
49385;DHT22;36795;45.028;38.968;2022-10-31T19:10:37;10.50;64.50
49385;DHT22;36795;45.028;38.968;2022-10-31T19:13:23;10.40;63.60
49385;DHT22;36795;45.028;38.968;2022-10-31T19:16:13;10.30;62.10
49385;DHT22;36795;45.028;38.968;2022-10-31T19:19:00;10.20;61.60
49385;DHT22;36795;45.028;38.968;2022-10-31T19:21:46;10.10;60.50